Time;durP1;ratioP1;P1;durP2;ratioP2;P2;SDS_P1;SDS_P2;PMS_P1;PMS_P2;Temp;Humidity;BMP_temperature;BMP_pressure;BME280_temperature;BME280_humidity;BME280_pressure;Samples;Min_cycle;Max_cycle;Signal;HPM_P1;HPM_P2
2022/04/21 00:00:43;;;;;;;;;;;17.30;66.00;;;;;;2020305;28;19951;-70
2022/04/21 00:01:41;;;;;;;;;;;17.30;66.00;;;;;;2020525;28;19991;-72
2022/04/21 00:02:41;;;;;;;;;;;17.30;66.20;;;;;;2020972;28;19940;-69
2022/04/21 00:03:39;;;;;;;;;;;17.30;66.10;;;;;;2021112;28;20322;-71
2022/04/21 00:04:37;;;;;;;;;;;17.30;66.30;;;;;;2021031;28;19954;-71
2022/04/21 00:05:36;;;;;;;;;;;17.30;66.10;;;;;;2020957;28;20330;-69
2022/04/21 00:06:34;;;;;;;;;;;17.30;66.30;;;;;;2020046;28;19905;-70
2022/04/21 00:07:33;;;;;;;;;;;17.30;66.50;;;;;;2020597;28;19996;-69
2022/04/21 00:08:31;;;;;;;;;;;17.30;66.60;;;;;;2020797;28;20003;-69
2022/04/21 00:09:30;;;;;;;;;;;17.30;66.60;;;;;;2021049;28;19962;-70
2022/04/21 00:10:28;;;;;;;;;;;17.30;66.70;;;;;;2021538;28;20318;-69
2022/04/21 00:11:27;;;;;;;;;;;17.30;66.80;;;;;;2021434;28;19912;-69
2022/04/21 00:12:25;;;;;;;;;;;17.30;66.80;;;;;;2021643;28;19908;-69
2022/04/21 00:13:23;;;;;;;;;;;17.30;66.90;;;;;;2021504;28;19955;-69
2022/04/21 00:14:22;;;;;;;;;;;17.30;67.70;;;;;;2021827;28;19905;-71
2022/04/21 00:15:20;;;;;;;;;;;17.30;67.20;;;;;;2021410;28;19909;-71
2022/04/21 00:16:19;;;;;;;;;;;17.30;67.30;;;;;;2020652;28;19915;-69
2022/04/21 00:17:17;;;;;;;;;;;17.30;67.30;;;;;;2019977;28;19904;-69
2022/04/21 00:18:16;;;;;;;;;;;17.30;67.30;;;;;;2020798;28;19904;-71
2022/04/21 00:19:14;;;;;;;;;;;17.30;67.60;;;;;;2021404;28;19909;-70
2022/04/21 00:20:13;;;;;;;;;;;17.30;67.80;;;;;;2021321;28;19904;-70
2022/04/21 00:21:11;;;;;;;;;;;17.30;68.10;;;;;;2021229;28;20014;-70
2022/04/21 00:23:28;;;;;;;;;;;17.30;68.30;;;;;;2020967;28;19909;-70
2022/04/21 00:24:26;;;;;;;;;;;17.30;68.40;;;;;;2021309;28;19908;-70
2022/04/21 00:25:27;;;;;;;;;;;17.30;68.40;;;;;;2021085;28;19909;-71
2022/04/21 00:26:25;;;;;;;;;;;17.30;68.40;;;;;;2021160;28;19916;-70
2022/04/21 00:27:23;;;;;;;;;;;17.30;68.40;;;;;;2021308;28;19912;-69
2022/04/21 00:28:22;;;;;;;;;;;17.30;68.60;;;;;;2021387;28;19911;-69
2022/04/21 00:29:21;;;;;;;;;;;17.30;68.60;;;;;;2021350;28;19912;-69
2022/04/21 00:30:19;;;;;;;;;;;17.30;68.60;;;;;;2021543;28;20359;-72
2022/04/21 00:31:18;;;;;;;;;;;17.30;68.60;;;;;;2021889;28;19905;-70
2022/04/21 00:32:17;;;;;;;;;;;17.20;68.60;;;;;;2021808;28;19912;-69
2022/04/21 00:33:16;;;;;;;;;;;17.20;68.60;;;;;;2021686;28;19912;-71
2022/04/21 00:34:14;;;;;;;;;;;17.20;68.70;;;;;;2021697;28;19904;-69
2022/04/21 00:35:13;;;;;;;;;;;17.20;68.80;;;;;;2021462;28;19940;-70
2022/04/21 00:36:12;;;;;;;;;;;17.20;68.90;;;;;;2020455;28;20410;-70
2022/04/21 00:37:11;;;;;;;;;;;17.20;68.90;;;;;;2020243;28;19986;-70
2022/04/21 00:38:09;;;;;;;;;;;17.20;68.80;;;;;;2021422;28;19911;-70
2022/04/21 00:39:08;;;;;;;;;;;17.20;68.80;;;;;;2020876;28;19995;-71
2022/04/21 00:40:07;;;;;;;;;;;17.20;68.90;;;;;;2020847;28;19962;-71
2022/04/21 00:41:05;;;;;;;;;;;17.20;68.90;;;;;;2020711;28;19908;-71
2022/04/21 00:42:04;;;;;;;;;;;17.20;68.80;;;;;;2020865;28;20279;-70
2022/04/21 00:43:02;;;;;;;;;;;17.20;68.80;;;;;;2020866;28;19987;-70
2022/04/21 00:44:02;;;;;;;;;;;17.20;68.90;;;;;;2020730;28;19911;-70
2022/04/21 00:45:00;;;;;;;;;;;17.20;69.00;;;;;;2020694;28;19905;-70
2022/04/21 00:45:59;;;;;;;;;;;17.20;69.20;;;;;;2020758;28;19955;-69
2022/04/21 00:47:00;;;;;;;;;;;17.20;69.10;;;;;;2020615;28;20355;-70
2022/04/21 00:48:00;;;;;;;;;;;17.20;69.60;;;;;;2020675;28;19931;-70
2022/04/21 00:48:58;;;;;;;;;;;17.20;69.60;;;;;;2020847;28;20336;-70
2022/04/21 00:49:57;;;;;;;;;;;17.20;69.70;;;;;;2020701;28;19999;-70
2022/04/21 00:50:56;;;;;;;;;;;17.20;69.70;;;;;;2020680;28;19909;-70
2022/04/21 00:51:55;;;;;;;;;;;17.20;69.10;;;;;;2020818;28;19904;-69
2022/04/21 00:52:54;;;;;;;;;;;17.20;69.60;;;;;;2020665;28;20361;-70
2022/04/21 00:53:52;;;;;;;;;;;17.20;69.80;;;;;;2020871;28;19999;-70
2022/04/21 00:54:51;;;;;;;;;;;17.20;69.70;;;;;;2020808;28;19905;-71
2022/04/21 00:55:50;;;;;;;;;;;17.20;69.70;;;;;;2020640;28;19916;-71
2022/04/21 00:56:49;;;;;;;;;;;17.20;69.80;;;;;;2020465;28;19912;-71
2022/04/21 00:57:48;;;;;;;;;;;17.20;69.80;;;;;;2020704;28;20204;-69
2022/04/21 00:58:47;;;;;;;;;;;17.20;69.70;;;;;;2020853;28;20213;-71
2022/04/21 00:59:46;;;;;;;;;;;17.20;69.80;;;;;;2020832;28;19939;-71
2022/04/21 01:00:44;;;;;;;;;;;17.20;69.80;;;;;;2020724;28;20379;-69
2022/04/21 01:03:00;;;;;;;;;;;17.20;69.80;;;;;;2020731;28;19905;-69
2022/04/21 01:03:58;;;;;;;;;;;17.10;69.80;;;;;;2020683;28;20004;-69
2022/04/21 01:04:57;;;;;;;;;;;17.20;69.80;;;;;;2020595;28;19905;-69
2022/04/21 01:05:55;;;;;;;;;;;17.20;69.90;;;;;;2020623;28;19912;-69
2022/04/21 01:06:57;;;;;;;;;;;17.20;69.80;;;;;;2020563;28;20276;-70
2022/04/21 01:07:56;;;;;;;;;;;17.20;69.80;;;;;;2020504;28;20589;-70
2022/04/21 01:08:55;;;;;;;;;;;17.10;69.80;;;;;;2020617;28;19994;-70
2022/04/21 01:09:53;;;;;;;;;;;17.10;69.80;;;;;;2020643;28;19905;-70
2022/04/21 01:10:52;;;;;;;;;;;17.20;70.60;;;;;;2020597;28;19905;-70
2022/04/21 01:11:51;;;;;;;;;;;17.20;70.00;;;;;;2020693;28;20025;-70
2022/04/21 01:12:50;;;;;;;;;;;17.20;69.90;;;;;;2020726;28;19912;-70
2022/04/21 01:13:49;;;;;;;;;;;17.10;69.80;;;;;;2020616;28;19904;-71
2022/04/21 01:14:47;;;;;;;;;;;17.20;69.90;;;;;;2020618;28;19904;-69
2022/04/21 01:15:46;;;;;;;;;;;17.20;70.00;;;;;;2020614;28;19944;-69
2022/04/21 01:16:45;;;;;;;;;;;17.10;69.80;;;;;;2020623;28;20174;-71
2022/04/21 01:17:45;;;;;;;;;;;17.20;70.00;;;;;;2020698;28;19905;-71
2022/04/21 01:18:44;;;;;;;;;;;17.10;69.70;;;;;;2020835;28;19905;-70
2022/04/21 01:19:42;;;;;;;;;;;17.20;69.90;;;;;;2020406;28;19904;-70
2022/04/21 01:20:41;;;;;;;;;;;17.20;70.00;;;;;;2020551;28;19995;-69
2022/04/21 01:21:39;;;;;;;;;;;17.10;69.80;;;;;;2020620;28;20253;-70
2022/04/21 01:22:37;;;;;;;;;;;17.10;69.80;;;;;;2020533;28;19954;-70
2022/04/21 01:23:36;;;;;;;;;;;17.10;69.40;;;;;;2020710;28;19904;-71
2022/04/21 01:24:34;;;;;;;;;;;17.10;69.80;;;;;;2020605;28;19915;-70
2022/04/21 01:25:38;;;;;;;;;;;17.10;70.00;;;;;;2020834;28;19905;-70
2022/04/21 01:26:37;;;;;;;;;;;17.10;69.90;;;;;;2020677;28;19905;-71
2022/04/21 01:27:37;;;;;;;;;;;17.10;69.90;;;;;;2020401;28;19915;-70
2022/04/21 01:28:36;;;;;;;;;;;17.10;70.00;;;;;;2020792;28;19958;-70
2022/04/21 01:29:34;;;;;;;;;;;17.20;70.10;;;;;;2020680;28;20430;-71
2022/04/21 01:30:33;;;;;;;;;;;17.10;69.80;;;;;;2020542;28;19907;-70
2022/04/21 01:31:31;;;;;;;;;;;17.10;69.80;;;;;;2020707;28;19904;-71
2022/04/21 01:32:31;;;;;;;;;;;17.10;69.70;;;;;;2020648;28;20440;-70
2022/04/21 01:33:30;;;;;;;;;;;17.10;69.50;;;;;;2020688;28;19962;-70
2022/04/21 01:34:28;;;;;;;;;;;17.10;69.50;;;;;;2020728;28;20408;-69
2022/04/21 01:35:27;;;;;;;;;;;17.10;69.10;;;;;;2020730;28;19904;-70
2022/04/21 01:36:25;;;;;;;;;;;17.10;68.70;;;;;;2020827;28;19952;-69
2022/04/21 01:41:16;;;;;;;;;;;17.10;67.40;;;;;;2020784;28;19991;-70
2022/04/21 01:42:15;;;;;;;;;;;17.10;67.40;;;;;;2020541;28;19974;-70
2022/04/21 01:43:14;;;;;;;;;;;17.10;67.20;;;;;;2020627;28;19944;-70
2022/04/21 01:44:12;;;;;;;;;;;17.10;67.10;;;;;;2020618;28;19936;-71
2022/04/21 01:45:11;;;;;;;;;;;17.10;66.90;;;;;;2020769;28;19904;-69
2022/04/21 01:46:10;;;;;;;;;;;17.10;66.90;;;;;;2020638;28;19912;-71
2022/04/21 01:47:08;;;;;;;;;;;17.10;66.90;;;;;;2020699;28;19905;-70
2022/04/21 01:48:07;;;;;;;;;;;17.10;66.20;;;;;;2020974;28;20021;-70
2022/04/21 01:49:05;;;;;;;;;;;17.10;65.60;;;;;;2021519;28;19958;-69
2022/04/21 01:50:07;;;;;;;;;;;17.10;65.30;;;;;;2023638;28;19931;-70
2022/04/21 01:51:05;;;;;;;;;;;17.00;65.00;;;;;;2024844;28;19916;-69
2022/04/21 01:52:04;;;;;;;;;;;17.10;65.00;;;;;;2025417;28;19911;-70
2022/04/21 01:53:02;;;;;;;;;;;17.10;64.90;;;;;;2025314;28;19974;-70
2022/04/21 01:54:01;;;;;;;;;;;17.10;64.90;;;;;;2024983;28;19911;-70
2022/04/21 01:54:59;;;;;;;;;;;17.10;64.80;;;;;;2023503;28;19958;-70
2022/04/21 01:55:58;;;;;;;;;;;17.10;64.80;;;;;;2022852;28;20291;-70
2022/04/21 01:56:56;;;;;;;;;;;17.10;64.80;;;;;;2022860;28;20004;-70
2022/04/21 01:57:55;;;;;;;;;;;17.10;64.80;;;;;;2022322;28;19955;-70
2022/04/21 01:58:53;;;;;;;;;;;17.10;64.80;;;;;;2022255;28;19904;-70
2022/04/21 01:59:51;;;;;;;;;;;17.10;64.70;;;;;;2022207;28;20348;-71
2022/04/21 02:00:50;;;;;;;;;;;17.10;64.80;;;;;;2022060;28;19904;-70
2022/04/21 02:01:49;;;;;;;;;;;17.10;64.80;;;;;;2022072;28;20332;-70
2022/04/21 02:02:48;;;;;;;;;;;17.00;64.60;;;;;;2021837;28;19905;-69
2022/04/21 02:03:46;;;;;;;;;;;17.00;64.60;;;;;;2022001;28;19962;-70
2022/04/21 02:04:45;;;;;;;;;;;17.10;64.80;;;;;;2022114;28;19908;-70
2022/04/21 02:05:43;;;;;;;;;;;17.10;64.80;;;;;;2022029;28;19905;-70
2022/04/21 02:06:42;;;;;;;;;;;17.00;64.70;;;;;;2021818;28;19908;-70
2022/04/21 02:07:42;;;;;;;;;;;17.10;64.90;;;;;;2021932;28;19911;-71
2022/04/21 02:08:40;;;;;;;;;;;17.10;64.90;;;;;;2022086;28;19923;-71
2022/04/21 02:09:38;;;;;;;;;;;17.10;64.90;;;;;;2021895;28;19948;-70
2022/04/21 02:10:37;;;;;;;;;;;17.00;64.80;;;;;;2021914;28;19911;-71
2022/04/21 02:11:35;;;;;;;;;;;17.00;64.80;;;;;;2022051;28;20325;-69
2022/04/21 02:12:34;;;;;;;;;;;17.00;64.80;;;;;;2021726;28;19931;-70
2022/04/21 02:13:32;;;;;;;;;;;17.00;64.80;;;;;;2021772;28;19994;-70
2022/04/21 02:14:31;;;;;;;;;;;17.00;64.80;;;;;;2021845;28;19905;-70
2022/04/21 02:15:29;;;;;;;;;;;17.00;64.80;;;;;;2021871;28;19992;-70
2022/04/21 02:16:28;;;;;;;;;;;17.00;64.80;;;;;;2021714;28;19909;-69
2022/04/21 02:17:26;;;;;;;;;;;17.00;64.80;;;;;;2021900;28;19956;-71
2022/04/21 02:18:25;;;;;;;;;;;17.00;64.80;;;;;;2021811;28;20351;-69
2022/04/21 02:19:23;;;;;;;;;;;17.00;64.90;;;;;;2022047;28;19911;-70
2022/04/21 02:20:21;;;;;;;;;;;17.00;64.80;;;;;;2021781;28;20413;-70
2022/04/21 02:21:20;;;;;;;;;;;17.00;64.90;;;;;;2021723;28;19944;-70
2022/04/21 02:22:18;;;;;;;;;;;17.00;64.90;;;;;;2021204;28;19947;-70
2022/04/21 02:23:17;;;;;;;;;;;17.00;64.90;;;;;;2021308;28;20287;-71
2022/04/21 02:24:15;;;;;;;;;;;17.00;64.90;;;;;;2021628;28;19979;-72
2022/04/21 02:25:15;;;;;;;;;;;17.00;64.90;;;;;;2021560;28;19905;-70
2022/04/21 02:26:14;;;;;;;;;;;17.00;64.90;;;;;;2021712;28;19905;-70
2022/04/21 02:27:12;;;;;;;;;;;17.00;65.00;;;;;;2021824;28;20384;-69
2022/04/21 02:28:10;;;;;;;;;;;17.00;64.90;;;;;;2021858;28;19963;-72
2022/04/21 02:29:09;;;;;;;;;;;17.00;65.00;;;;;;2021692;28;20337;-70
2022/04/21 02:30:08;;;;;;;;;;;17.00;64.90;;;;;;2021769;28;19905;-69
2022/04/21 02:31:06;;;;;;;;;;;17.00;65.00;;;;;;2021662;28;19908;-70
2022/04/21 02:32:05;;;;;;;;;;;17.00;65.00;;;;;;2021650;28;20007;-71
2022/04/21 02:33:05;;;;;;;;;;;17.00;65.10;;;;;;2021745;28;19905;-69
2022/04/21 02:34:03;;;;;;;;;;;17.00;65.00;;;;;;2021671;28;19905;-70
2022/04/21 02:35:02;;;;;;;;;;;17.00;65.10;;;;;;2021568;28;20367;-70
2022/04/21 02:36:01;;;;;;;;;;;17.00;65.10;;;;;;2021596;28;20370;-70
2022/04/21 02:36:59;;;;;;;;;;;16.90;65.00;;;;;;2021497;28;19908;-69
2022/04/21 02:37:58;;;;;;;;;;;17.00;65.20;;;;;;2021531;28;19908;-71
2022/04/21 02:38:56;;;;;;;;;;;17.00;65.20;;;;;;2021678;28;19905;-69
2022/04/21 02:39:54;;;;;;;;;;;17.00;65.10;;;;;;2021656;28;19951;-69
2022/04/21 02:40:53;;;;;;;;;;;17.00;65.20;;;;;;2021611;28;19905;-70
2022/04/21 02:41:52;;;;;;;;;;;17.00;65.20;;;;;;2021727;28;19912;-70
2022/04/21 02:42:51;;;;;;;;;;;17.00;65.20;;;;;;2021765;28;19959;-70
2022/04/21 02:43:49;;;;;;;;;;;17.00;65.20;;;;;;2021660;28;20320;-69
2022/04/21 02:44:48;;;;;;;;;;;17.00;65.20;;;;;;2021439;28;19955;-70
2022/04/21 02:45:46;;;;;;;;;;;17.00;65.30;;;;;;2021633;28;19904;-70
2022/04/21 02:46:45;;;;;;;;;;;17.00;65.20;;;;;;2021531;28;19924;-70
2022/04/21 02:47:44;;;;;;;;;;;17.00;65.20;;;;;;2021668;28;19936;-70
2022/04/21 02:48:43;;;;;;;;;;;16.90;65.20;;;;;;2021434;28;19971;-70
2022/04/21 02:49:45;;;;;;;;;;;17.00;65.30;;;;;;2020847;28;19908;-69
2022/04/21 02:50:44;;;;;;;;;;;17.00;65.30;;;;;;2021017;28;19995;-70
2022/04/21 02:51:43;;;;;;;;;;;17.00;65.30;;;;;;2021608;28;19904;-69
2022/04/21 02:52:42;;;;;;;;;;;17.00;65.30;;;;;;2021549;28;20333;-70
2022/04/21 02:57:32;;;;;;;;;;;17.00;65.40;;;;;;2021505;28;19901;-69
2022/04/21 02:58:31;;;;;;;;;;;16.90;65.30;;;;;;2021534;28;19905;-70
2022/04/21 02:59:29;;;;;;;;;;;17.00;65.30;;;;;;2021478;28;20302;-71
2022/04/21 03:00:28;;;;;;;;;;;16.90;65.30;;;;;;2021210;28;19905;-69
2022/04/21 03:01:26;;;;;;;;;;;16.90;65.30;;;;;;2021377;28;20229;-71
2022/04/21 03:02:25;;;;;;;;;;;16.90;65.20;;;;;;2021640;28;19912;-70
2022/04/21 03:03:23;;;;;;;;;;;16.90;65.20;;;;;;2021483;28;19962;-69
2022/04/21 03:04:22;;;;;;;;;;;16.90;65.30;;;;;;2021462;28;19905;-71
2022/04/21 03:05:20;;;;;;;;;;;16.90;65.30;;;;;;2021455;28;20067;-69
2022/04/21 03:06:19;;;;;;;;;;;16.90;65.40;;;;;;2021881;28;20010;-70
2022/04/21 03:07:17;;;;;;;;;;;17.00;65.40;;;;;;2021393;28;19992;-70
2022/04/21 03:08:16;;;;;;;;;;;16.90;65.40;;;;;;2021497;28;19904;-70
2022/04/21 03:09:14;;;;;;;;;;;16.90;65.40;;;;;;2021365;28;20023;-71
2022/04/21 03:10:13;;;;;;;;;;;16.90;65.40;;;;;;2021571;28;19912;-70
2022/04/21 03:11:11;;;;;;;;;;;16.90;65.40;;;;;;2021470;28;19957;-69
2022/04/21 03:12:10;;;;;;;;;;;16.90;65.40;;;;;;2021110;28;19905;-70
2022/04/21 03:13:08;;;;;;;;;;;16.90;65.40;;;;;;2021370;28;19908;-69
2022/04/21 03:14:07;;;;;;;;;;;16.90;65.40;;;;;;2021351;28;19966;-71
2022/04/21 03:15:06;;;;;;;;;;;16.90;65.40;;;;;;2021301;28;19905;-71
2022/04/21 03:16:05;;;;;;;;;;;16.90;65.40;;;;;;2021491;28;19909;-69
2022/04/21 03:17:07;;;;;;;;;;;16.90;65.50;;;;;;2021176;28;19905;-69
2022/04/21 03:18:05;;;;;;;;;;;16.90;65.50;;;;;;2021430;28;19909;-70
2022/04/21 03:19:04;;;;;;;;;;;16.90;65.60;;;;;;2021292;28;20275;-70
2022/04/21 03:20:03;;;;;;;;;;;16.90;65.60;;;;;;2021328;28;19904;-69
2022/04/21 03:24:53;;;;;;;;;;;16.80;65.60;;;;;;2021172;28;19904;-70
2022/04/21 03:25:52;;;;;;;;;;;16.90;65.80;;;;;;2021393;28;19905;-69
2022/04/21 03:26:51;;;;;;;;;;;16.80;65.60;;;;;;2021123;28;20264;-70
2022/04/21 03:27:50;;;;;;;;;;;16.90;65.70;;;;;;2020637;28;19911;-71
2022/04/21 03:28:49;;;;;;;;;;;16.80;65.60;;;;;;2020622;28;20362;-71
2022/04/21 03:29:47;;;;;;;;;;;16.90;65.70;;;;;;2020476;28;19912;-69
2022/04/21 03:30:45;;;;;;;;;;;16.90;65.70;;;;;;2020742;28;19912;-70
2022/04/21 03:31:44;;;;;;;;;;;16.90;65.70;;;;;;2021271;28;19904;-69
2022/04/21 03:32:43;;;;;;;;;;;16.80;65.70;;;;;;2021143;28;19912;-70
2022/04/21 03:33:42;;;;;;;;;;;16.80;65.70;;;;;;2021643;28;20331;-69
2022/04/21 03:34:41;;;;;;;;;;;16.90;65.80;;;;;;2021284;28;19905;-71
2022/04/21 03:35:40;;;;;;;;;;;16.90;65.90;;;;;;2021256;28;19904;-70
2022/04/21 03:36:47;;;;;;;;;;;16.90;65.90;;;;;;2021001;28;20259;-69
2022/04/21 03:37:46;;;;;;;;;;;16.90;65.80;;;;;;2021323;28;19904;-71
2022/04/21 03:38:44;;;;;;;;;;;16.80;65.80;;;;;;2021263;28;19904;-70
2022/04/21 03:39:43;;;;;;;;;;;16.90;65.90;;;;;;2021273;28;20003;-70
2022/04/21 03:40:41;;;;;;;;;;;16.90;65.90;;;;;;2021285;28;19904;-70
2022/04/21 03:41:40;;;;;;;;;;;16.90;66.00;;;;;;2021200;28;19967;-70
2022/04/21 03:42:39;;;;;;;;;;;16.90;66.00;;;;;;2021051;28;20385;-69
2022/04/21 03:43:37;;;;;;;;;;;16.80;65.90;;;;;;2021177;28;19904;-70
2022/04/21 03:44:39;;;;;;;;;;;16.80;65.80;;;;;;2021216;28;19940;-71
2022/04/21 03:45:38;;;;;;;;;;;16.80;65.90;;;;;;2021183;28;19905;-70
2022/04/21 03:46:37;;;;;;;;;;;16.80;65.80;;;;;;2020981;28;20209;-70
2022/04/21 03:47:36;;;;;;;;;;;16.80;65.90;;;;;;2021080;28;19913;-69
2022/04/21 03:48:35;;;;;;;;;;;16.80;65.90;;;;;;2021050;28;20588;-69
2022/04/21 03:49:34;;;;;;;;;;;16.80;65.90;;;;;;2020996;28;19911;-70
2022/04/21 03:50:34;;;;;;;;;;;16.80;65.90;;;;;;2021046;28;19904;-70
2022/04/21 03:51:32;;;;;;;;;;;16.80;66.00;;;;;;2020571;28;19911;-71
2022/04/21 03:52:31;;;;;;;;;;;16.80;65.90;;;;;;2020607;28;19905;-69
2022/04/21 03:53:30;;;;;;;;;;;16.80;65.90;;;;;;2021016;28;19905;-70
2022/04/21 03:54:28;;;;;;;;;;;16.80;66.00;;;;;;2021138;28;19905;-70
2022/04/21 03:55:27;;;;;;;;;;;16.80;66.00;;;;;;2020969;28;19963;-70
2022/04/21 03:56:27;;;;;;;;;;;16.80;65.90;;;;;;2020903;28;19919;-69
2022/04/21 03:57:27;;;;;;;;;;;16.80;65.90;;;;;;2021030;28;20352;-69
2022/04/21 03:58:25;;;;;;;;;;;16.80;66.00;;;;;;2020887;28;19948;-69
2022/04/21 03:59:24;;;;;;;;;;;16.90;66.10;;;;;;2021033;28;19905;-69
2022/04/21 04:00:22;;;;;;;;;;;16.80;65.90;;;;;;2020992;28;20327;-71
2022/04/21 04:01:21;;;;;;;;;;;16.80;66.00;;;;;;2021025;28;19905;-69
2022/04/21 04:02:20;;;;;;;;;;;16.80;66.10;;;;;;2021017;28;19911;-69
2022/04/21 04:03:18;;;;;;;;;;;16.90;66.20;;;;;;2020951;28;19943;-69
2022/04/21 04:04:16;;;;;;;;;;;16.80;66.10;;;;;;2020950;28;19911;-69
2022/04/21 04:05:15;;;;;;;;;;;16.80;66.10;;;;;;2020223;28;19909;-70
2022/04/21 04:11:23;;;;;;;;;;;16.80;66.20;;;;;;2020867;28;19909;-70
2022/04/21 04:12:23;;;;;;;;;;;16.80;66.30;;;;;;2020513;28;19938;-70
2022/04/21 04:13:22;;;;;;;;;;;16.80;66.30;;;;;;2021005;28;19905;-70
2022/04/21 04:14:21;;;;;;;;;;;16.80;66.30;;;;;;2020877;28;19958;-70
2022/04/21 04:15:21;;;;;;;;;;;16.80;66.30;;;;;;2020858;28;19905;-70
2022/04/21 04:16:21;;;;;;;;;;;16.80;66.30;;;;;;2020827;28;19909;-70
2022/04/21 04:17:19;;;;;;;;;;;16.80;66.30;;;;;;2020764;28;19905;-70
2022/04/21 04:18:18;;;;;;;;;;;16.80;66.40;;;;;;2020780;28;19944;-69
2022/04/21 04:19:17;;;;;;;;;;;16.80;66.30;;;;;;2020878;28;19905;-70
2022/04/21 04:20:15;;;;;;;;;;;16.80;66.30;;;;;;2021012;28;19915;-70
2022/04/21 04:21:14;;;;;;;;;;;16.80;66.30;;;;;;2020762;28;19912;-71
2022/04/21 04:22:14;;;;;;;;;;;16.80;66.30;;;;;;2020827;28;19940;-70
2022/04/21 04:23:16;;;;;;;;;;;16.80;66.30;;;;;;2020937;28;19905;-70
2022/04/21 04:24:14;;;;;;;;;;;16.80;66.20;;;;;;2020879;28;20007;-70
2022/04/21 04:25:13;;;;;;;;;;;16.80;66.30;;;;;;2020848;28;19905;-69
2022/04/21 04:26:11;;;;;;;;;;;16.80;66.30;;;;;;2020862;28;19905;-70
2022/04/21 04:27:10;;;;;;;;;;;16.80;66.40;;;;;;2020825;28;20240;-70
2022/04/21 04:28:08;;;;;;;;;;;16.80;67.10;;;;;;2020833;28;19958;-70
2022/04/21 04:29:07;;;;;;;;;;;16.80;66.40;;;;;;2020821;28;20003;-71
2022/04/21 04:30:07;;;;;;;;;;;16.80;66.40;;;;;;2020998;28;19915;-70
2022/04/21 04:31:05;;;;;;;;;;;16.80;66.50;;;;;;2020802;28;19939;-69
2022/04/21 04:32:04;;;;;;;;;;;16.80;66.40;;;;;;2020788;28;20240;-69
2022/04/21 04:33:02;;;;;;;;;;;16.80;66.40;;;;;;2020879;28;19966;-70
2022/04/21 04:34:01;;;;;;;;;;;16.80;66.40;;;;;;2020864;28;19905;-70
2022/04/21 04:34:59;;;;;;;;;;;16.80;66.50;;;;;;2020868;28;20344;-70
2022/04/21 04:35:57;;;;;;;;;;;16.80;66.50;;;;;;2021025;28;20296;-70
2022/04/21 04:36:56;;;;;;;;;;;16.80;66.50;;;;;;2025533;28;20355;-70
2022/04/21 04:37:54;;;;;;;;;;;16.80;66.50;;;;;;2025373;28;19909;-70
2022/04/21 04:38:53;;;;;;;;;;;16.80;66.50;;;;;;2026068;28;19954;-69
2022/04/21 04:39:52;;;;;;;;;;;16.80;66.50;;;;;;2026228;28;19912;-70
2022/04/21 04:40:50;;;;;;;;;;;16.80;66.60;;;;;;2022559;28;20322;-69
2022/04/21 04:43:05;;;;;;;;;;;16.80;66.50;;;;;;2022272;28;19995;-70
2022/04/21 04:44:04;;;;;;;;;;;16.80;66.60;;;;;;2021575;28;19909;-68
2022/04/21 04:46:35;;;;;;;;;;;16.80;66.40;;;;;;2021080;28;19905;-70
2022/04/21 04:47:33;;;;;;;;;;;16.80;66.40;;;;;;2021402;28;19912;-70
2022/04/21 04:48:32;;;;;;;;;;;16.80;66.40;;;;;;2020980;28;19947;-69
2022/04/21 04:49:30;;;;;;;;;;;16.70;66.40;;;;;;2020131;28;19904;-69
2022/04/21 04:50:28;;;;;;;;;;;16.80;66.50;;;;;;2020312;28;19951;-69
2022/04/21 04:51:27;;;;;;;;;;;16.80;66.60;;;;;;2020682;28;20291;-69
2022/04/21 04:52:25;;;;;;;;;;;16.80;66.60;;;;;;2021007;28;19916;-69
2022/04/21 04:53:24;;;;;;;;;;;16.80;66.50;;;;;;2020958;28;19905;-70
2022/04/21 04:54:23;;;;;;;;;;;16.80;66.50;;;;;;2020160;28;19954;-69
2022/04/21 04:55:21;;;;;;;;;;;16.80;66.40;;;;;;2020184;28;19983;-70
2022/04/21 04:56:24;;;;;;;;;;;16.80;66.50;;;;;;2020674;28;19908;-70
2022/04/21 04:57:22;;;;;;;;;;;16.80;66.50;;;;;;2021027;28;19975;-70
2022/04/21 04:58:21;;;;;;;;;;;16.70;66.50;;;;;;2020742;28;19905;-69
2022/04/21 04:59:19;;;;;;;;;;;16.80;66.60;;;;;;2020753;28;20391;-69
2022/04/21 05:00:18;;;;;;;;;;;16.80;66.60;;;;;;2020667;28;19951;-70
2022/04/21 05:01:20;;;;;;;;;;;16.80;66.60;;;;;;2020593;28;19944;-70
2022/04/21 05:02:20;;;;;;;;;;;16.80;66.70;;;;;;2020595;28;19948;-70
2022/04/21 05:03:19;;;;;;;;;;;16.80;66.60;;;;;;2020657;28;19905;-70
2022/04/21 05:04:18;;;;;;;;;;;16.80;66.50;;;;;;2020651;28;19993;-69
2022/04/21 05:05:17;;;;;;;;;;;16.80;66.60;;;;;;2020639;28;19904;-69
2022/04/21 05:06:15;;;;;;;;;;;16.80;67.40;;;;;;2020537;28;19944;-70
2022/04/21 05:07:14;;;;;;;;;;;16.80;66.70;;;;;;2020879;28;19954;-70
2022/04/21 05:08:12;;;;;;;;;;;16.80;66.70;;;;;;2020634;28;19982;-69
2022/04/21 05:09:11;;;;;;;;;;;16.80;66.70;;;;;;2020623;28;19927;-69
2022/04/21 05:10:10;;;;;;;;;;;16.80;66.70;;;;;;2020605;28;20361;-70
2022/04/21 05:11:09;;;;;;;;;;;16.80;66.70;;;;;;2020571;28;19988;-70
2022/04/21 05:12:08;;;;;;;;;;;16.80;66.60;;;;;;2020532;28;19924;-69
2022/04/21 05:13:08;;;;;;;;;;;16.80;66.60;;;;;;2020612;28;19915;-69
2022/04/21 05:14:07;;;;;;;;;;;16.80;66.60;;;;;;2020697;28;20035;-69
2022/04/21 05:15:06;;;;;;;;;;;16.80;66.70;;;;;;2020678;28;19915;-70
2022/04/21 05:16:05;;;;;;;;;;;16.80;66.60;;;;;;2020581;28;19908;-70
2022/04/21 05:17:03;;;;;;;;;;;16.80;66.70;;;;;;2020517;28;19905;-70
2022/04/21 05:18:02;;;;;;;;;;;16.80;66.70;;;;;;2020629;28;19905;-70
2022/04/21 05:19:00;;;;;;;;;;;16.80;66.70;;;;;;2020674;28;19904;-70
2022/04/21 05:19:59;;;;;;;;;;;16.80;66.50;;;;;;2020820;28;19935;-70
2022/04/21 05:20:57;;;;;;;;;;;16.80;66.70;;;;;;2020766;28;19905;-69
2022/04/21 05:21:59;;;;;;;;;;;16.80;66.60;;;;;;2020775;28;19905;-70
2022/04/21 05:23:02;;;;;;;;;;;16.80;66.60;;;;;;2020754;28;19904;-70
2022/04/21 05:24:01;;;;;;;;;;;16.80;66.70;;;;;;2020320;28;19904;-69
2022/04/21 05:25:01;;;;;;;;;;;16.80;66.80;;;;;;2021767;28;20287;-70
2022/04/21 05:25:59;;;;;;;;;;;16.80;66.80;;;;;;2022180;28;19904;-69
2022/04/21 05:26:58;;;;;;;;;;;16.80;66.70;;;;;;2022147;28;19944;-71
2022/04/21 05:27:57;;;;;;;;;;;16.80;67.40;;;;;;2022275;28;19905;-70
2022/04/21 05:28:56;;;;;;;;;;;16.80;66.70;;;;;;2022134;28;19908;-71
2022/04/21 05:31:14;;;;;;;;;;;16.80;66.80;;;;;;2022101;28;19904;-70
2022/04/21 05:32:15;;;;;;;;;;;16.90;66.80;;;;;;2022331;28;19905;-70
2022/04/21 05:33:14;;;;;;;;;;;16.90;66.60;;;;;;2022189;28;19959;-70
2022/04/21 05:34:13;;;;;;;;;;;16.90;66.50;;;;;;2022049;28;20276;-70
2022/04/21 05:35:12;;;;;;;;;;;17.00;66.50;;;;;;2022012;28;19905;-70
2022/04/21 05:36:10;;;;;;;;;;;17.00;66.50;;;;;;2021949;28;19914;-69
2022/04/21 05:37:09;;;;;;;;;;;16.90;66.50;;;;;;2021905;28;19905;-70
2022/04/21 05:38:07;;;;;;;;;;;16.90;66.50;;;;;;2022151;28;19958;-69
2022/04/21 05:39:06;;;;;;;;;;;16.90;66.50;;;;;;2022007;28;19989;-70
2022/04/21 05:40:05;;;;;;;;;;;16.90;66.50;;;;;;2021723;28;19912;-69
2022/04/21 05:41:04;;;;;;;;;;;16.90;66.70;;;;;;2022046;28;19905;-69
2022/04/21 05:42:05;;;;;;;;;;;16.90;66.60;;;;;;2022077;28;19924;-71
2022/04/21 05:43:07;;;;;;;;;;;16.90;66.50;;;;;;2022175;28;19943;-70
2022/04/21 05:44:06;;;;;;;;;;;16.90;66.40;;;;;;2021987;28;19912;-70
2022/04/21 05:45:05;;;;;;;;;;;16.90;66.40;;;;;;2022184;28;19904;-69
2022/04/21 05:46:04;;;;;;;;;;;16.90;66.30;;;;;;2022194;28;19904;-70
2022/04/21 05:47:02;;;;;;;;;;;16.90;66.40;;;;;;2021987;28;20017;-69
2022/04/21 05:48:02;;;;;;;;;;;16.60;66.20;;;;;;2021841;28;19911;-70
2022/04/21 05:49:01;;;;;;;;;;;16.90;66.50;;;;;;2022047;28;19908;-69
2022/04/21 05:50:00;;;;;;;;;;;16.90;66.40;;;;;;2022138;28;19908;-69
2022/04/21 05:50:59;;;;;;;;;;;16.90;66.40;;;;;;2022003;28;19904;-69
2022/04/21 05:51:59;;;;;;;;;;;16.90;66.50;;;;;;2022014;28;19912;-70
2022/04/21 05:53:01;;;;;;;;;;;16.90;66.50;;;;;;2022083;28;20244;-69
2022/04/21 05:54:01;;;;;;;;;;;16.80;66.60;;;;;;2021973;28;19911;-67
2022/04/21 05:55:00;;;;;;;;;;;16.90;66.90;;;;;;2021162;28;19905;-69
2022/04/21 05:55:58;;;;;;;;;;;16.90;66.60;;;;;;2021482;28;19904;-69
2022/04/21 05:56:57;;;;;;;;;;;17.00;67.20;;;;;;2021868;28;19904;-69
2022/04/21 05:57:56;;;;;;;;;;;17.00;67.00;;;;;;2022014;28;20367;-69
2022/04/21 05:58:54;;;;;;;;;;;17.00;67.00;;;;;;2021938;28;19905;-70
2022/04/21 05:59:53;;;;;;;;;;;17.00;67.20;;;;;;2021952;28;19904;-70
2022/04/21 06:00:51;;;;;;;;;;;17.00;67.30;;;;;;2021839;28;19962;-70
2022/04/21 06:01:49;;;;;;;;;;;17.00;67.30;;;;;;2021924;28;19905;-73
2022/04/21 06:02:48;;;;;;;;;;;17.00;67.40;;;;;;2021758;28;19904;-70
2022/04/21 06:03:46;;;;;;;;;;;17.10;67.80;;;;;;2021592;28;20359;-70
2022/04/21 06:04:45;;;;;;;;;;;17.10;67.60;;;;;;2021358;28;19909;-70
2022/04/21 06:05:43;;;;;;;;;;;17.00;67.30;;;;;;2021812;28;19905;-71